Estació municipal de St. Hilari Sacalm (La Selva, Guilleries)

Consulta les dades en temps real de l'estació municipal de St. Hilari Sacalm





Hora UTC 02:55
Temperatura 17.8 ºC
Humitat 87.7 %
Pressió 1022.6 hPa
Pluja 0.0 mm
Velocitat vent 0.0 km/h
Direcció vent NNE
Radiació solar 0.1 W/m²

Webcam

Dades diàries 2026-09-02



Hora UTC (hivern +1h; estiu +2h)
Temperatura (ºC) Humitat (%) Pressió (hPa) Velocitat vent (km/h) Precipitació (mm) Radiació solar (W/m²)
Hora UTC Aire Humitat Pressió Vel. Dir. Vel. Max Dir. Intent. màx 5 min. Rad. Sol.
00:05 18.8 82.6 1022.8 0.0 SW 0.0 SW 0.0 0.1
00:10 18.9 81.9 1022.8 0.0 NNE 0.0 SW 0.0 0.1
00:15 18.7 82.3 1022.8 0.0 NNE 0.0 SW 0.0 0.1
00:20 18.6 82.8 1022.8 0.0 NNE 0.0 SSW 0.0 0.1
00:25 18.5 83.0 1022.8 0.0 NNE 0.0 SSW 0.0 0.1
00:30 18.4 83.4 1022.8 0.0 NNE 0.0 SW 0.0 0.1
00:35 18.3 84.1 1022.8 0.0 NNE 0.0 SSW 0.0 0.1
00:40 18.4 83.9 1022.8 0.0 NNE 0.0 SSW 0.0 0.1
00:45 18.4 83.9 1022.8 0.0 NNE 0.0 SW 0.0 0.1
00:50 18.4 83.8 1022.8 0.0 NNE 0.0 WSW 0.0 0.1
00:55 18.3 84.4 1022.8 0.0 NNE 0.0 SSW 0.0 0.1
01:00 18.3 84.4 1022.7 0.0 NNE 0.0 SSW 0.0 0.1
01:05 18.3 84.5 1022.7 0.0 NNE 0.0 SSW 0.0 0.1
01:10 18.3 84.6 1022.7 0.0 NNE 0.0 SSW 0.0 0.1
01:15 18.3 84.8 1022.7 0.0 NNE 0.0 SSW 0.0 0.1
01:20 18.3 84.7 1022.7 0.0 NNE 0.0 SSW 0.0 0.2
01:25 18.2 85.0 1022.6 0.0 NNE 0.0 SSW 0.0 0.2
01:30 18.3 84.8 1022.6 0.0 NNE 0.0 SSW 0.0 0.1
01:35 18.2 85.0 1022.7 0.0 NNE 0.0 SSW 0.0 0.1
01:40 18.2 85.1 1022.6 0.0 NNE 0.0 SW 0.0 0.1
01:45 18.2 85.3 1022.5 0.0 NNE 0.0 SSW 0.0 0.1
01:50 18.3 85.0 1022.5 0.0 NNE 0.0 SSW 0.0 0.1
01:55 18.3 84.8 1022.5 0.0 NNE 0.0 SSW 0.0 0.1
02:00 18.1 84.9 1022.5 0.0 NNE 0.0 WSW 0.0 0.1
02:05 17.9 85.6 1022.6 0.0 NNE 0.0 SW 0.0 0.1
02:10 17.8 86.3 1022.6 0.0 NNE 0.0 SW 0.0 0.1
02:15 17.7 87.3 1022.6 0.0 NNE 0.0 SW 0.0 0.1
02:20 17.6 87.9 1022.6 0.0 NNE 0.0 SSW 0.0 0.1
02:25 17.6 88.7 1022.5 0.0 NNE 0.0 SSW 0.0 0.1
02:30 17.6 89.0 1022.5 0.0 NNE 0.0 SW 0.0 0.2
02:35 17.7 89.1 1022.5 0.0 NNE 0.0 SSW 0.0 0.1
02:40 17.8 88.7 1022.5 0.0 NNE 0.0 SSW 0.0 0.1
02:45 17.9 88.1 1022.5 0.0 NNE 0.0 SW 0.0 0.1
02:50 17.8 87.6 1022.5 0.0 NNE 0.0 SW 0.0 0.1
02:55 17.8 87.7 1022.6 0.0 NNE 0.0 S 0.0 0.1
Màxima 18.9 89.1 1022.8 0.0 NNE 0.0 S 0.0 0.2
Mínima 17.6 81.9 1022.5
Total 0.0